Terminal Aerodrome Forecast
Issued by NWS

Home | Current Version | Previous Version | Text Only | Print | Product List | Glossary On
Versions: 1 2 3 4 5 6 7 8 9 10 11 12 13
000
FTUS45 KGGW 250500
TAFGDV
TAF
KGDV 250520Z 2506/2606 VRB06KT P6SM BKN080
     FM251300 VRB06KT P6SM SCT250
     FM251800 VRB06KT P6SM BKN080
     FM260300 07012KT P6SM BKN080
      AMD LTD TO CLD VIS AND WIND=

USA.gov is the U.S. government's official web portal to all federal, state and local government web resources and services.